Time;durP1;ratioP1;P1;durP2;ratioP2;P2;SDS_P1;SDS_P2;PMS_P1;PMS_P2;Temp;Humidity;BMP_temperature;BMP_pressure;BME280_temperature;BME280_humidity;BME280_pressure;Samples;Min_cycle;Max_cycle;Signal;HPM_P1;HPM_P2
2023/08/17 00:00:58;;;;;;;10.40;3.60;;;;;;;;;;6129233;23;20017;-45
2023/08/17 00:03:25;;;;;;;8.38;3.40;;;;;;;;;;6111165;23;20080;-41
2023/08/17 00:05:55;;;;;;;9.25;3.47;;;;;;;;;;6129924;23;20017;-43
2023/08/17 00:08:23;;;;;;;9.45;3.50;;;;;;;;;;6123889;23;20024;-43
2023/08/17 00:10:52;;;;;;;6.77;3.00;;;;;;;;;;6125964;23;20060;-43
2023/08/17 00:13:20;;;;;;;7.63;3.00;;;;;;;;;;6120366;23;20021;-43
2023/08/17 00:15:47;;;;;;;9.10;2.65;;;;;;;;;;6119293;23;20021;-41
2023/08/17 00:18:16;;;;;;;9.25;3.50;;;;;;;;;;6131451;23;20017;-42
2023/08/17 00:20:44;;;;;;;6.57;2.50;;;;;;;;;;6117595;23;20021;-41
2023/08/17 00:23:11;;;;;;;9.47;3.13;;;;;;;;;;6154333;23;20408;-43
2023/08/17 00:25:39;;;;;;;5.75;2.78;;;;;;;;;;6110640;23;20721;-44
2023/08/17 00:28:07;;;;;;;7.72;2.80;;;;;;;;;;6152365;23;20021;-43
2023/08/17 00:30:37;;;;;;;10.30;3.00;;;;;;;;;;6116084;23;20601;-44
2023/08/17 00:33:05;;;;;;;7.82;3.05;;;;;;;;;;6121192;23;20013;-42
2023/08/17 00:35:36;;;;;;;7.40;2.70;;;;;;;;;;6123473;23;20032;-43
2023/08/17 00:38:04;;;;;;;7.13;2.58;;;;;;;;;;6122384;23;20392;-43
2023/08/17 00:40:31;;;;;;;7.78;3.13;;;;;;;;;;6117241;23;20023;-42
2023/08/17 00:42:59;;;;;;;7.93;3.05;;;;;;;;;;6123808;23;20018;-42
2023/08/17 00:45:27;;;;;;;8.10;3.58;;;;;;;;;;6122593;23;20020;-42
2023/08/17 00:47:56;;;;;;;8.37;3.77;;;;;;;;;;6155746;23;20025;-43
2023/08/17 00:50:24;;;;;;;15.85;3.63;;;;;;;;;;6126496;23;20048;-42
2023/08/17 00:52:54;;;;;;;7.28;3.53;;;;;;;;;;6129097;23;20021;-42
2023/08/17 00:55:21;;;;;;;7.82;4.25;;;;;;;;;;6123294;23;20036;-44
2023/08/17 00:57:52;;;;;;;8.98;4.40;;;;;;;;;;6128248;23;20037;-45
2023/08/17 01:00:20;;;;;;;7.47;3.63;;;;;;;;;;6126270;23;20032;-44
2023/08/17 01:02:49;;;;;;;10.27;4.47;;;;;;;;;;6112395;23;20084;-43
2023/08/17 01:05:16;;;;;;;9.93;4.78;;;;;;;;;;6127842;23;20037;-42
2023/08/17 01:07:44;;;;;;;9.40;4.78;;;;;;;;;;6122609;23;20014;-42
2023/08/17 01:10:13;;;;;;;12.60;4.72;;;;;;;;;;6128820;23;20017;-43
2023/08/17 01:12:44;;;;;;;9.73;5.17;;;;;;;;;;6116212;23;20128;-42
2023/08/17 01:15:15;;;;;;;10.60;5.10;;;;;;;;;;6131698;23;20021;-42
2023/08/17 01:17:44;;;;;;;11.60;5.43;;;;;;;;;;6115231;23;20017;-43
2023/08/17 01:20:14;;;;;;;9.50;5.20;;;;;;;;;;6131667;23;20026;-42
2023/08/17 01:22:42;;;;;;;10.02;5.63;;;;;;;;;;6121394;23;20033;-42
2023/08/17 01:25:11;;;;;;;11.93;5.70;;;;;;;;;;6129574;23;20017;-42
2023/08/17 01:27:40;;;;;;;14.48;5.70;;;;;;;;;;6121846;23;20013;-44
2023/08/17 01:30:09;;;;;;;11.40;6.03;;;;;;;;;;6124229;23;20013;-42
2023/08/17 01:32:38;;;;;;;12.35;5.75;;;;;;;;;;6123972;23;20045;-42
2023/08/17 01:35:10;;;;;;;11.55;5.63;;;;;;;;;;6130401;23;20531;-42
2023/08/17 01:37:39;;;;;;;11.60;5.27;;;;;;;;;;6117438;23;20014;-42
2023/08/17 01:40:08;;;;;;;11.43;6.20;;;;;;;;;;6126064;23;20548;-44
2023/08/17 01:42:37;;;;;;;11.02;6.38;;;;;;;;;;6115922;23;20041;-42
2023/08/17 01:45:05;;;;;;;13.52;5.63;;;;;;;;;;6130998;23;20017;-42
2023/08/17 01:47:34;;;;;;;12.95;6.35;;;;;;;;;;6105384;23;20021;-42
2023/08/17 01:50:01;;;;;;;12.70;6.60;;;;;;;;;;6131112;23;20021;-43
2023/08/17 01:52:29;;;;;;;13.02;6.57;;;;;;;;;;6138388;23;20020;-42
2023/08/17 01:54:57;;;;;;;12.45;6.40;;;;;;;;;;6130204;23;20040;-42
2023/08/17 01:57:24;;;;;;;11.90;6.50;;;;;;;;;;6128330;23;20041;-43
2023/08/17 01:59:54;;;;;;;12.50;6.53;;;;;;;;;;6123972;23;20373;-42
2023/08/17 02:02:22;;;;;;;15.20;6.90;;;;;;;;;;6124812;23;20044;-42
2023/08/17 02:04:50;;;;;;;11.02;6.40;;;;;;;;;;6151834;23;20021;-42
2023/08/17 02:07:18;;;;;;;14.75;6.60;;;;;;;;;;6133601;23;20020;-42
2023/08/17 02:09:45;;;;;;;10.48;6.13;;;;;;;;;;6124779;23;20080;-42
2023/08/17 02:12:13;;;;;;;12.98;6.80;;;;;;;;;;6133738;23;20018;-42
2023/08/17 02:14:40;;;;;;;14.67;6.77;;;;;;;;;;6102715;23;20351;-42
2023/08/17 02:17:09;;;;;;;16.73;7.00;;;;;;;;;;6132429;23;20017;-43
2023/08/17 02:19:37;;;;;;;12.65;6.15;;;;;;;;;;6127414;23;20024;-42
2023/08/17 02:22:05;;;;;;;11.82;6.10;;;;;;;;;;6118646;23;20068;-45
2023/08/17 02:24:33;;;;;;;13.63;6.28;;;;;;;;;;6134150;23;20024;-42
2023/08/17 02:27:01;;;;;;;13.10;5.50;;;;;;;;;;6116842;23;20017;-43
2023/08/17 02:29:28;;;;;;;11.63;5.88;;;;;;;;;;6125920;23;20463;-42
2023/08/17 02:31:56;;;;;;;13.60;5.72;;;;;;;;;;6128395;23;20170;-43
2023/08/17 02:34:25;;;;;;;13.57;5.80;;;;;;;;;;6126897;23;20017;-42
2023/08/17 02:36:53;;;;;;;11.70;5.90;;;;;;;;;;6131584;23;20014;-44
2023/08/17 02:39:20;;;;;;;10.07;5.53;;;;;;;;;;6100512;23;20084;-47
2023/08/17 02:41:49;;;;;;;10.90;5.63;;;;;;;;;;6122688;23;20021;-44
2023/08/17 02:44:16;;;;;;;11.35;5.45;;;;;;;;;;6129002;23;20104;-43
2023/08/17 02:46:44;;;;;;;10.20;5.43;;;;;;;;;;6129619;23;20077;-44
2023/08/17 02:49:13;;;;;;;12.07;5.68;;;;;;;;;;6129717;23;20025;-42
2023/08/17 02:51:42;;;;;;;13.50;5.60;;;;;;;;;;6126123;23;20017;-43
2023/08/17 02:54:10;;;;;;;10.38;4.97;;;;;;;;;;6131426;23;20014;-42
2023/08/17 02:56:38;;;;;;;12.13;5.45;;;;;;;;;;6127618;23;20472;-41
2023/08/17 02:59:05;;;;;;;9.82;4.68;;;;;;;;;;6131585;23;20461;-42
2023/08/17 03:01:33;;;;;;;9.50;4.63;;;;;;;;;;6125605;23;20495;-42
2023/08/17 03:04:01;;;;;;;10.00;5.13;;;;;;;;;;6136176;23;20017;-41
2023/08/17 03:06:28;;;;;;;10.13;4.45;;;;;;;;;;6124659;23;20018;-44
2023/08/17 03:08:57;;;;;;;10.15;4.82;;;;;;;;;;6124688;23;20041;-42
2023/08/17 03:11:25;;;;;;;12.95;5.03;;;;;;;;;;6124679;23;20017;-43
2023/08/17 03:13:55;;;;;;;11.43;5.00;;;;;;;;;;6130185;23;20014;-43
2023/08/17 03:16:22;;;;;;;9.97;4.50;;;;;;;;;;6122688;23;20021;-42
2023/08/17 03:18:50;;;;;;;9.93;4.90;;;;;;;;;;6136045;23;20010;-42
2023/08/17 03:21:18;;;;;;;13.98;5.18;;;;;;;;;;6130755;23;20452;-44
2023/08/17 03:23:46;;;;;;;9.40;4.82;;;;;;;;;;6127485;23;20028;-42
2023/08/17 03:26:16;;;;;;;12.25;5.32;;;;;;;;;;6130947;23;20035;-43
2023/08/17 03:28:43;;;;;;;12.23;5.50;;;;;;;;;;6110309;23;20720;-42
2023/08/17 03:31:12;;;;;;;10.98;5.22;;;;;;;;;;6134393;23;20014;-43
2023/08/17 03:33:40;;;;;;;10.15;5.53;;;;;;;;;;6132559;23;20041;-42
2023/08/17 03:36:08;;;;;;;11.43;5.38;;;;;;;;;;6123603;23;20025;-44
2023/08/17 03:38:35;;;;;;;10.93;5.53;;;;;;;;;;6127198;23;20018;-42
2023/08/17 03:41:04;;;;;;;9.53;5.10;;;;;;;;;;6129428;23;20014;-43
2023/08/17 03:43:33;;;;;;;13.13;5.63;;;;;;;;;;6128386;23;20596;-42
2023/08/17 03:46:00;;;;;;;12.80;6.55;;;;;;;;;;6132207;23;20033;-42
2023/08/17 03:48:28;;;;;;;14.13;6.10;;;;;;;;;;6133048;23;20096;-42
2023/08/17 03:50:56;;;;;;;18.95;8.77;;;;;;;;;;6132799;23;20632;-42
2023/08/17 03:53:23;;;;;;;21.37;9.87;;;;;;;;;;6114406;23;20220;-42
2023/08/17 03:55:51;;;;;;;20.27;9.77;;;;;;;;;;6133959;23;20013;-42
2023/08/17 03:58:19;;;;;;;18.20;9.80;;;;;;;;;;6128443;23;20023;-46
2023/08/17 04:00:51;;;;;;;18.35;11.23;;;;;;;;;;6125814;23;20021;-42
2023/08/17 04:03:19;;;;;;;23.17;12.05;;;;;;;;;;6137609;23;20022;-43
2023/08/17 04:05:47;;;;;;;21.60;11.33;;;;;;;;;;6119511;23;20014;-42
2023/08/17 04:08:14;;;;;;;23.45;11.57;;;;;;;;;;6137629;23;20618;-42
2023/08/17 04:10:42;;;;;;;22.00;11.98;;;;;;;;;;6130903;23;20017;-42
2023/08/17 04:13:10;;;;;;;22.33;12.05;;;;;;;;;;6123273;23;20025;-42
2023/08/17 04:15:37;;;;;;;22.83;12.13;;;;;;;;;;6129387;23;20013;-42
2023/08/17 04:18:06;;;;;;;23.80;12.57;;;;;;;;;;6123706;23;20021;-43
2023/08/17 04:20:34;;;;;;;22.20;12.50;;;;;;;;;;6135657;23;20014;-43
2023/08/17 04:23:01;;;;;;;21.58;12.90;;;;;;;;;;6127932;23;20028;-42
2023/08/17 04:25:29;;;;;;;23.05;13.05;;;;;;;;;;6137035;23;20025;-42
2023/08/17 04:27:57;;;;;;;23.95;12.43;;;;;;;;;;6130022;23;20017;-42
2023/08/17 04:30:25;;;;;;;24.57;12.87;;;;;;;;;;6117874;23;20017;-41
2023/08/17 04:32:54;;;;;;;23.45;12.50;;;;;;;;;;6138883;23;20018;-42
2023/08/17 04:35:23;;;;;;;23.20;12.10;;;;;;;;;;6122315;23;20524;-43
2023/08/17 04:37:54;;;;;;;20.98;12.23;;;;;;;;;;6125744;23;20021;-43
2023/08/17 04:40:22;;;;;;;22.60;12.48;;;;;;;;;;6129508;23;20014;-45
2023/08/17 04:42:50;;;;;;;25.47;11.67;;;;;;;;;;6120854;23;20018;-41
2023/08/17 04:45:17;;;;;;;29.67;12.73;;;;;;;;;;6128158;23;20025;-41
2023/08/17 04:47:45;;;;;;;27.60;13.00;;;;;;;;;;6125288;23;20564;-42
2023/08/17 04:50:16;;;;;;;22.23;11.90;;;;;;;;;;6127018;23;20018;-42
2023/08/17 04:52:45;;;;;;;23.80;12.45;;;;;;;;;;6117963;23;20064;-42
2023/08/17 04:55:13;;;;;;;24.63;12.93;;;;;;;;;;6128426;23;20533;-42
2023/08/17 04:57:41;;;;;;;32.60;13.43;;;;;;;;;;6116270;23;20017;-41
2023/08/17 05:00:09;;;;;;;29.05;12.80;;;;;;;;;;6126517;23;20017;-44
2023/08/17 05:02:37;;;;;;;26.20;13.00;;;;;;;;;;6126907;23;20020;-42
2023/08/17 05:05:08;;;;;;;31.75;13.45;;;;;;;;;;6125651;23;20060;-42
2023/08/17 05:07:36;;;;;;;25.30;13.77;;;;;;;;;;6120826;23;20013;-42
2023/08/17 05:10:05;;;;;;;26.10;14.13;;;;;;;;;;6123877;23;20028;-42
2023/08/17 05:12:33;;;;;;;24.75;13.05;;;;;;;;;;6120707;23;20100;-41
2023/08/17 05:15:01;;;;;;;26.95;13.48;;;;;;;;;;6125564;23;20017;-42
2023/08/17 05:17:28;;;;;;;25.30;13.30;;;;;;;;;;6120324;23;20021;-43
2023/08/17 05:19:56;;;;;;;24.07;13.07;;;;;;;;;;6128488;23;20319;-43
2023/08/17 05:22:24;;;;;;;27.13;13.82;;;;;;;;;;6115632;23;20343;-43
2023/08/17 05:24:52;;;;;;;25.40;13.98;;;;;;;;;;6128524;23;20447;-42
2023/08/17 05:27:21;;;;;;;23.95;12.98;;;;;;;;;;6123497;23;20021;-42
2023/08/17 05:29:49;;;;;;;25.35;13.73;;;;;;;;;;6125788;23;20490;-42
2023/08/17 05:32:17;;;;;;;25.43;12.23;;;;;;;;;;6120355;23;20024;-43
2023/08/17 05:34:44;;;;;;;29.52;14.13;;;;;;;;;;6120145;23;20021;-42
2023/08/17 05:37:12;;;;;;;28.65;13.15;;;;;;;;;;6118682;23;20032;-42
2023/08/17 05:39:40;;;;;;;25.75;12.98;;;;;;;;;;6114794;23;20021;-43
2023/08/17 05:42:09;;;;;;;25.85;13.73;;;;;;;;;;6123421;23;20014;-43
2023/08/17 05:44:38;;;;;;;28.13;12.90;;;;;;;;;;6124316;23;20026;-44
2023/08/17 05:47:06;;;;;;;26.70;13.35;;;;;;;;;;6127040;23;20022;-42
2023/08/17 05:49:34;;;;;;;22.85;12.27;;;;;;;;;;6119927;23;20077;-43
2023/08/17 05:52:02;;;;;;;28.05;12.60;;;;;;;;;;6128595;23;20029;-41
2023/08/17 05:54:30;;;;;;;28.70;13.00;;;;;;;;;;6108436;23;20013;-42
2023/08/17 05:56:57;;;;;;;25.40;12.70;;;;;;;;;;6127450;23;20026;-43
2023/08/17 05:59:25;;;;;;;27.00;13.30;;;;;;;;;;6123416;23;20638;-42
2023/08/17 06:01:54;;;;;;;24.20;13.05;;;;;;;;;;6124097;23;20448;-42
2023/08/17 06:04:25;;;;;;;25.15;12.30;;;;;;;;;;6110531;23;20021;-43
2023/08/17 06:06:53;;;;;;;22.92;12.45;;;;;;;;;;6118203;23;20444;-42
2023/08/17 06:09:21;;;;;;;26.07;12.10;;;;;;;;;;6122382;23;20503;-43
2023/08/17 06:11:48;;;;;;;26.92;13.38;;;;;;;;;;6128062;23;20017;-42
2023/08/17 06:14:16;;;;;;;32.33;13.57;;;;;;;;;;6115000;23;20076;-43
2023/08/17 06:16:44;;;;;;;27.90;13.80;;;;;;;;;;6127212;23;20076;-42
2023/08/17 06:19:13;;;;;;;25.20;12.82;;;;;;;;;;6117753;23;20357;-44
2023/08/17 06:21:40;;;;;;;28.13;13.30;;;;;;;;;;6130619;23;20484;-42
2023/08/17 06:24:11;;;;;;;27.25;13.18;;;;;;;;;;6119543;23;20021;-42
2023/08/17 06:26:38;;;;;;;26.35;13.18;;;;;;;;;;6128716;23;20083;-42
2023/08/17 06:29:06;;;;;;;28.42;13.77;;;;;;;;;;6118589;23;20037;-44
2023/08/17 06:31:34;;;;;;;28.30;13.85;;;;;;;;;;6128975;23;20097;-45
2023/08/17 06:34:01;;;;;;;26.13;12.97;;;;;;;;;;6114459;23;20451;-43
2023/08/17 06:36:32;;;;;;;23.33;13.32;;;;;;;;;;6125478;23;20029;-44
2023/08/17 06:39:00;;;;;;;27.30;12.90;;;;;;;;;;6129808;23;20017;-43
2023/08/17 06:41:28;;;;;;;25.33;12.18;;;;;;;;;;6117927;23;20688;-44
2023/08/17 06:43:55;;;;;;;28.10;12.40;;;;;;;;;;6131155;23;20017;-43
2023/08/17 06:46:24;;;;;;;24.17;12.33;;;;;;;;;;6124220;23;20319;-42
2023/08/17 06:48:52;;;;;;;26.40;13.13;;;;;;;;;;6127807;23;20021;-45
2023/08/17 06:51:19;;;;;;;28.73;13.43;;;;;;;;;;6120665;23;20017;-41
2023/08/17 06:53:48;;;;;;;22.10;12.82;;;;;;;;;;6126236;23;20040;-42
2023/08/17 06:56:16;;;;;;;23.50;12.40;;;;;;;;;;6120817;23;20027;-43
2023/08/17 06:58:43;;;;;;;25.70;13.37;;;;;;;;;;6127428;23;20025;-43
2023/08/17 07:01:11;;;;;;;25.42;13.65;;;;;;;;;;6115810;23;20022;-43
2023/08/17 07:03:39;;;;;;;27.35;14.32;;;;;;;;;;6124884;23;20029;-43
2023/08/17 07:06:07;;;;;;;27.10;13.70;;;;;;;;;;6118635;23;20090;-42
2023/08/17 07:08:34;;;;;;;29.75;14.85;;;;;;;;;;6130796;23;20069;-42
2023/08/17 07:11:05;;;;;;;26.30;14.13;;;;;;;;;;6118040;23;20728;-45
2023/08/17 07:13:33;;;;;;;26.90;15.07;;;;;;;;;;6129684;23;20014;-42
2023/08/17 07:16:01;;;;;;;28.75;14.27;;;;;;;;;;6120398;23;20014;-44
2023/08/17 07:18:29;;;;;;;26.90;14.02;;;;;;;;;;6125476;23;20036;-42
2023/08/17 07:20:56;;;;;;;25.73;14.18;;;;;;;;;;6117905;23;20018;-42
2023/08/17 07:23:26;;;;;;;23.27;13.87;;;;;;;;;;6119993;23;20041;-42
2023/08/17 07:25:54;;;;;;;28.45;14.38;;;;;;;;;;6124574;23;20549;-41
2023/08/17 07:28:23;;;;;;;26.88;13.75;;;;;;;;;;6127238;23;20022;-43
2023/08/17 07:30:51;;;;;;;28.45;13.48;;;;;;;;;;6114565;23;20490;-43
2023/08/17 07:33:19;;;;;;;26.88;13.77;;;;;;;;;;6125913;23;20033;-43
2023/08/17 07:35:46;;;;;;;26.50;14.53;;;;;;;;;;6121805;23;20068;-43
2023/08/17 07:38:14;;;;;;;27.52;14.05;;;;;;;;;;6122493;23;20400;-41
2023/08/17 07:40:43;;;;;;;24.00;12.00;;;;;;;;;;6126535;23;20018;-43
2023/08/17 07:43:10;;;;;;;23.58;13.05;;;;;;;;;;6122385;23;20157;-41
2023/08/17 07:45:39;;;;;;;26.45;14.65;;;;;;;;;;6126393;23;20021;-43
2023/08/17 07:48:07;;;;;;;27.10;14.27;;;;;;;;;;6111326;23;20021;-42
2023/08/17 07:50:35;;;;;;;24.52;12.70;;;;;;;;;;6122151;23;20350;-42
2023/08/17 07:53:03;;;;;;;25.40;13.43;;;;;;;;;;6119159;23;20085;-44
2023/08/17 07:55:30;;;;;;;16.65;8.65;;;;;;;;;;6104307;23;20024;-43
2023/08/17 07:57:58;;;;;;;25.75;14.18;;;;;;;;;;6117339;23;20028;-42
2023/08/17 08:00:26;;;;;;;21.80;13.30;;;;;;;;;;6098125;23;20435;-41
2023/08/17 08:02:55;;;;;;;26.17;14.57;;;;;;;;;;6107088;23;20018;-41
2023/08/17 08:05:23;;;;;;;26.83;14.63;;;;;;;;;;6118356;23;20022;-47
2023/08/17 08:07:51;;;;;;;23.00;13.60;;;;;;;;;;6089670;23;20325;-43
2023/08/17 08:10:18;;;;;;;25.73;14.75;;;;;;;;;;6104911;23;20047;-42
2023/08/17 08:12:46;;;;;;;29.00;16.50;;;;;;;;;;6107192;23;20017;-41
2023/08/17 08:15:14;;;;;;;25.23;14.48;;;;;;;;;;6135169;23;20024;-42
2023/08/17 08:17:41;;;;;;;22.48;14.07;;;;;;;;;;6117635;23;20022;-48
2023/08/17 08:20:11;;;;;;;24.42;12.93;;;;;;;;;;6126078;23;20017;-43
2023/08/17 08:22:39;;;;;;;23.92;11.95;;;;;;;;;;6126361;23;20017;-42
2023/08/17 08:25:07;;;;;;;21.03;12.33;;;;;;;;;;6128284;23;20017;-42
2023/08/17 08:27:34;;;;;;;19.67;11.43;;;;;;;;;;6126233;23;20045;-43
2023/08/17 08:30:02;;;;;;;27.90;12.70;;;;;;;;;;6125683;23;20018;-42
2023/08/17 08:32:30;;;;;;;15.95;10.43;;;;;;;;;;6121415;23;20038;-42
2023/08/17 08:34:57;;;;;;;19.95;11.13;;;;;;;;;;6117853;23;20009;-42
2023/08/17 08:37:26;;;;;;;22.40;10.70;;;;;;;;;;6128272;23;20613;-44
2023/08/17 08:39:56;;;;;;;22.88;10.60;;;;;;;;;;6118644;23;20049;-43
2023/08/17 08:42:23;;;;;;;19.13;10.70;;;;;;;;;;6125477;23;20021;-45
2023/08/17 08:44:51;;;;;;;22.40;11.88;;;;;;;;;;6124970;23;20017;-43
2023/08/17 08:47:19;;;;;;;18.73;9.30;;;;;;;;;;6129695;23;20086;-42
2023/08/17 08:49:51;;;;;;;17.43;9.80;;;;;;;;;;6125351;23;20024;-44
2023/08/17 08:52:23;;;;;;;23.67;10.45;;;;;;;;;;6124827;23;20037;-42
2023/08/17 08:54:55;;;;;;;18.27;9.77;;;;;;;;;;6129054;23;20524;-42
2023/08/17 08:57:23;;;;;;;18.38;9.25;;;;;;;;;;6119164;23;20021;-44
2023/08/17 08:59:53;;;;;;;17.42;9.35;;;;;;;;;;6130444;23;20021;-45
2023/08/17 09:02:25;;;;;;;20.53;8.97;;;;;;;;;;6129171;23;20219;-42
2023/08/17 09:04:53;;;;;;;15.70;8.32;;;;;;;;;;6122415;23;20068;-42
2023/08/17 09:07:22;;;;;;;14.35;7.85;;;;;;;;;;6132482;23;20499;-41
2023/08/17 09:09:50;;;;;;;17.50;7.47;;;;;;;;;;6117347;23;20018;-42
2023/08/17 09:12:23;;;;;;;15.07;7.63;;;;;;;;;;6132105;23;20065;-42
2023/08/17 09:15:07;;;;;;;12.47;6.50;;;;;;;;;;6126643;23;20017;-43
2023/08/17 09:17:35;;;;;;;16.58;6.57;;;;;;;;;;6140965;23;20544;-43
2023/08/17 09:20:03;;;;;;;12.05;5.88;;;;;;;;;;6129278;23;20028;-42
2023/08/17 09:22:37;;;;;;;11.40;6.75;;;;;;;;;;6119100;23;20044;-42
2023/08/17 09:25:06;;;;;;;12.63;6.07;;;;;;;;;;6152219;23;20014;-43
2023/08/17 09:27:35;;;;;;;14.40;6.10;;;;;;;;;;6121893;23;20190;-43
2023/08/17 09:30:06;;;;;;;11.73;6.25;;;;;;;;;;6128729;23;20013;-43
2023/08/17 09:32:34;;;;;;;13.13;6.30;;;;;;;;;;6122657;23;20352;-43
2023/08/17 09:35:03;;;;;;;12.88;6.13;;;;;;;;;;6124790;23;20041;-44
2023/08/17 09:37:31;;;;;;;12.60;5.63;;;;;;;;;;6124263;23;20533;-46
2023/08/17 09:39:58;;;;;;;10.53;5.20;;;;;;;;;;6121293;23;20020;-46
2023/08/17 09:42:27;;;;;;;14.43;5.22;;;;;;;;;;6121493;23;20048;-43
2023/08/17 09:44:56;;;;;;;8.65;4.20;;;;;;;;;;6124475;23;20076;-42
2023/08/17 09:47:24;;;;;;;8.98;3.70;;;;;;;;;;6140626;23;20021;-43
2023/08/17 09:49:52;;;;;;;8.98;3.92;;;;;;;;;;6143351;23;20017;-42
2023/08/17 09:52:20;;;;;;;6.00;2.50;;;;;;;;;;6116672;23;20039;-47
2023/08/17 09:54:48;;;;;;;9.88;4.30;;;;;;;;;;6125110;23;20340;-42
2023/08/17 09:57:18;;;;;;;7.03;3.75;;;;;;;;;;6117448;23;20025;-41
2023/08/17 09:59:53;;;;;;;8.88;3.88;;;;;;;;;;6124305;23;20029;-43
2023/08/17 10:02:24;;;;;;;7.60;2.10;;;;;;;;;;6129896;23;20037;-42
2023/08/17 10:04:53;;;;;;;9.47;3.47;;;;;;;;;;6116940;23;20013;-43
2023/08/17 10:07:21;;;;;;;7.55;2.90;;;;;;;;;;6127254;23;20048;-43
2023/08/17 10:09:55;;;;;;;7.45;2.63;;;;;;;;;;6117334;23;20018;-44
2023/08/17 10:12:25;;;;;;;8.93;2.65;;;;;;;;;;6120487;23;20029;-43
2023/08/17 10:14:56;;;;;;;6.22;2.47;;;;;;;;;;6128672;23;20108;-44
2023/08/17 10:17:28;;;;;;;6.10;2.60;;;;;;;;;;6116527;23;20044;-42
2023/08/17 10:19:57;;;;;;;8.35;3.97;;;;;;;;;;6127721;23;20013;-42
2023/08/17 10:22:29;;;;;;;7.45;3.65;;;;;;;;;;6122698;23;20032;-43
2023/08/17 10:24:58;;;;;;;11.05;3.78;;;;;;;;;;6131383;23;20024;-42
2023/08/17 10:27:26;;;;;;;10.00;4.10;;;;;;;;;;6119346;23;20332;-43
2023/08/17 10:29:56;;;;;;;7.47;3.87;;;;;;;;;;6120870;23;20497;-44
2023/08/17 10:32:24;;;;;;;9.88;4.15;;;;;;;;;;6126205;23;20113;-42
2023/08/17 10:34:55;;;;;;;7.60;3.42;;;;;;;;;;6119581;23;20017;-45
2023/08/17 10:37:24;;;;;;;9.05;4.18;;;;;;;;;;6132185;23;20459;-44
2023/08/17 10:39:52;;;;;;;7.75;3.80;;;;;;;;;;6116279;23;20022;-43
2023/08/17 10:42:33;;;;;;;7.90;3.77;;;;;;;;;;6130765;23;20112;-43
2023/08/17 10:45:01;;;;;;;8.48;4.53;;;;;;;;;;6103508;23;20430;-42
2023/08/17 10:47:31;;;;;;;9.02;4.05;;;;;;;;;;6127708;23;20027;-42
2023/08/17 10:50:05;;;;;;;12.43;4.43;;;;;;;;;;6144202;23;20025;-42
2023/08/17 10:52:33;;;;;;;10.05;4.43;;;;;;;;;;6113493;23;20018;-44
2023/08/17 10:55:01;;;;;;;8.53;4.00;;;;;;;;;;6125622;23;20017;-44
2023/08/17 10:57:30;;;;;;;9.05;4.20;;;;;;;;;;6122492;23;20045;-42
2023/08/17 11:00:07;;;;;;;10.98;4.78;;;;;;;;;;6129989;23;20020;-43
2023/08/17 11:02:35;;;;;;;12.98;4.00;;;;;;;;;;6122304;23;20024;-46
2023/08/17 11:05:07;;;;;;;7.95;4.78;;;;;;;;;;6118066;23;20465;-46
2023/08/17 11:07:41;;;;;;;7.43;3.50;;;;;;;;;;6119236;23;20028;-45
2023/08/17 11:10:13;;;;;;;8.82;4.30;;;;;;;;;;6131770;23;20486;-42
2023/08/17 11:12:42;;;;;;;12.45;4.40;;;;;;;;;;6118025;23;20428;-47
2023/08/17 11:15:10;;;;;;;10.35;4.65;;;;;;;;;;6120397;23;20433;-43
2023/08/17 11:17:38;;;;;;;10.52;4.28;;;;;;;;;;6085334;23;20032;-43
2023/08/17 11:20:09;;;;;;;9.70;4.03;;;;;;;;;;6098649;23;20490;-44
2023/08/17 11:22:41;;;;;;;10.50;4.10;;;;;;;;;;6087502;23;20100;-47
2023/08/17 11:25:09;;;;;;;14.20;4.70;;;;;;;;;;6116357;23;20021;-43
2023/08/17 11:27:37;;;;;;;12.20;4.60;;;;;;;;;;6103041;23;20025;-44
2023/08/17 11:30:09;;;;;;;9.38;4.15;;;;;;;;;;6098965;23;20024;-45
2023/08/17 11:32:37;;;;;;;8.67;4.00;;;;;;;;;;6109667;23;20093;-43
2023/08/17 11:35:05;;;;;;;9.52;3.88;;;;;;;;;;6106572;23;20246;-43
2023/08/17 11:37:37;;;;;;;7.55;3.95;;;;;;;;;;6116671;23;20037;-43
2023/08/17 11:40:09;;;;;;;10.13;4.13;;;;;;;;;;6092242;23;20639;-46
2023/08/17 11:42:40;;;;;;;10.15;4.20;;;;;;;;;;6108545;23;20040;-43
2023/08/17 11:45:09;;;;;;;10.93;4.43;;;;;;;;;;6129644;23;20109;-43
2023/08/17 11:47:41;;;;;;;11.02;4.20;;;;;;;;;;6103628;23;20171;-44
2023/08/17 11:50:11;;;;;;;8.27;4.03;;;;;;;;;;6073959;23;20085;-43
2023/08/17 11:52:49;;;;;;;7.68;3.60;;;;;;;;;;6108413;23;20096;-47
2023/08/17 11:55:19;;;;;;;12.27;3.35;;;;;;;;;;6109760;23;20017;-45
2023/08/17 11:57:47;;;;;;;7.97;3.67;;;;;;;;;;6098005;23;20026;-43
2023/08/17 12:00:18;;;;;;;7.43;3.17;;;;;;;;;;6101281;23;20105;-44
2023/08/17 12:02:49;;;;;;;6.88;3.47;;;;;;;;;;6088906;23;20013;-42
2023/08/17 12:05:21;;;;;;;6.68;3.20;;;;;;;;;;6104684;23;20107;-44
2023/08/17 12:07:50;;;;;;;10.05;3.13;;;;;;;;;;6103025;23;20021;-43
2023/08/17 12:10:19;;;;;;;7.93;2.83;;;;;;;;;;6099314;23;20076;-45
2023/08/17 12:12:47;;;;;;;7.53;2.83;;;;;;;;;;6093873;23;20018;-44
2023/08/17 12:15:16;;;;;;;7.38;3.20;;;;;;;;;;6106570;23;20044;-43
2023/08/17 12:17:47;;;;;;;8.32;2.75;;;;;;;;;;6109615;23;20025;-43
2023/08/17 12:20:19;;;;;;;8.48;3.20;;;;;;;;;;6089151;23;20482;-46
2023/08/17 12:22:47;;;;;;;6.67;2.77;;;;;;;;;;6102854;23;20700;-43
2023/08/17 12:25:17;;;;;;;9.15;2.63;;;;;;;;;;6107222;23;20064;-46
2023/08/17 12:27:48;;;;;;;7.43;2.90;;;;;;;;;;6100575;23;20021;-45
2023/08/17 12:30:25;;;;;;;9.35;2.80;;;;;;;;;;6096687;23;20017;-44
2023/08/17 12:32:52;;;;;;;8.38;2.50;;;;;;;;;;6109134;23;20025;-44
2023/08/17 12:35:24;;;;;;;7.53;2.47;;;;;;;;;;6098399;23;20044;-44
2023/08/17 12:37:52;;;;;;;6.85;2.33;;;;;;;;;;6102084;23;20021;-44
2023/08/17 12:40:22;;;;;;;5.95;2.67;;;;;;;;;;6091553;23;20021;-44
2023/08/17 12:42:50;;;;;;;8.15;2.72;;;;;;;;;;6102380;23;20022;-43
2023/08/17 12:45:17;;;;;;;7.90;2.50;;;;;;;;;;6114086;23;20013;-43
2023/08/17 12:47:45;;;;;;;10.00;3.27;;;;;;;;;;6103657;23;20210;-43
2023/08/17 12:50:13;;;;;;;7.68;2.55;;;;;;;;;;6103810;23;20041;-44
2023/08/17 12:52:41;;;;;;;5.72;2.03;;;;;;;;;;6105841;23;20518;-43
2023/08/17 12:55:13;;;;;;;7.05;2.50;;;;;;;;;;6110661;23;20072;-43
2023/08/17 12:57:43;;;;;;;10.93;2.60;;;;;;;;;;6101135;23;20103;-43
2023/08/17 13:00:11;;;;;;;11.23;2.50;;;;;;;;;;6101146;23;20021;-45
2023/08/17 13:02:41;;;;;;;6.85;2.47;;;;;;;;;;6102956;23;20017;-47
2023/08/17 13:05:10;;;;;;;7.57;2.60;;;;;;;;;;6098777;23;20048;-48
2023/08/17 13:07:38;;;;;;;7.32;2.22;;;;;;;;;;6083868;23;20028;-46
2023/08/17 13:10:06;;;;;;;6.90;2.20;;;;;;;;;;6097004;23;20021;-44
2023/08/17 13:12:34;;;;;;;5.67;1.97;;;;;;;;;;6095817;23;20052;-44
2023/08/17 13:15:03;;;;;;;5.95;1.85;;;;;;;;;;6104619;23;20017;-44
2023/08/17 13:17:31;;;;;;;6.43;2.15;;;;;;;;;;6114894;23;20022;-43
2023/08/17 13:19:59;;;;;;;6.07;1.80;;;;;;;;;;6096910;23;20100;-44
2023/08/17 13:22:28;;;;;;;5.72;2.03;;;;;;;;;;6133317;23;20550;-44
2023/08/17 13:24:57;;;;;;;6.03;2.03;;;;;;;;;;6107591;23;20539;-43
2023/08/17 13:27:25;;;;;;;5.68;1.77;;;;;;;;;;6105755;23;20022;-43
2023/08/17 13:29:52;;;;;;;10.13;2.53;;;;;;;;;;6097646;23;20025;-44
2023/08/17 13:32:21;;;;;;;5.78;1.67;;;;;;;;;;6100971;23;20013;-44
2023/08/17 13:34:49;;;;;;;6.22;2.22;;;;;;;;;;6108096;23;20060;-43
2023/08/17 13:37:17;;;;;;;5.63;2.13;;;;;;;;;;6095993;23;20112;-43
2023/08/17 13:39:44;;;;;;;6.35;2.22;;;;;;;;;;6083454;23;20319;-45
2023/08/17 13:42:12;;;;;;;6.03;2.20;;;;;;;;;;6113565;23;20021;-44
2023/08/17 13:44:40;;;;;;;5.45;2.08;;;;;;;;;;6099959;23;20020;-45
2023/08/17 13:47:07;;;;;;;6.25;1.80;;;;;;;;;;6110667;23;20021;-43
2023/08/17 13:49:36;;;;;;;7.27;2.20;;;;;;;;;;6107547;23;20035;-45
2023/08/17 13:52:04;;;;;;;5.75;1.50;;;;;;;;;;6111115;23;20036;-47
2023/08/17 13:54:32;;;;;;;7.28;2.15;;;;;;;;;;6101208;23;20021;-44
2023/08/17 13:57:00;;;;;;;6.00;1.70;;;;;;;;;;6111864;23;20017;-44
2023/08/17 13:59:29;;;;;;;5.57;1.67;;;;;;;;;;6082624;23;20033;-43
2023/08/17 14:01:57;;;;;;;4.67;1.47;;;;;;;;;;6107464;23;20017;-44
2023/08/17 14:04:25;;;;;;;6.93;2.15;;;;;;;;;;6102151;23;20021;-45
2023/08/17 14:06:54;;;;;;;5.28;1.52;;;;;;;;;;6106486;23;20017;-46
2023/08/17 14:09:22;;;;;;;6.47;1.73;;;;;;;;;;6123150;23;20120;-45
2023/08/17 14:11:49;;;;;;;5.75;2.00;;;;;;;;;;6108830;23;20017;-45
2023/08/17 14:14:17;;;;;;;6.57;1.70;;;;;;;;;;6102301;23;20317;-43
2023/08/17 14:16:44;;;;;;;5.63;1.65;;;;;;;;;;6112537;23;20372;-44
2023/08/17 14:19:12;;;;;;;6.35;2.13;;;;;;;;;;6100233;23;20104;-44
2023/08/17 14:21:40;;;;;;;7.80;2.55;;;;;;;;;;6111060;23;20120;-45
2023/08/17 14:24:09;;;;;;;4.93;1.63;;;;;;;;;;6097637;23;20041;-44
2023/08/17 14:26:39;;;;;;;5.80;1.90;;;;;;;;;;6116006;23;20025;-46
2023/08/17 14:29:06;;;;;;;7.25;2.00;;;;;;;;;;6105047;23;20084;-43
2023/08/17 14:31:34;;;;;;;6.18;2.30;;;;;;;;;;6111282;23;20028;-43
2023/08/17 14:34:02;;;;;;;5.10;1.75;;;;;;;;;;6107417;23;20048;-44
2023/08/17 14:36:32;;;;;;;5.32;1.60;;;;;;;;;;6109965;23;20056;-45
2023/08/17 14:39:00;;;;;;;5.57;1.70;;;;;;;;;;6113953;23;20527;-43